Time;durP1;ratioP1;P1;durP2;ratioP2;P2;SDS_P1;SDS_P2;PMS_P1;PMS_P2;Temp;Humidity;BMP_temperature;BMP_pressure;BME280_temperature;BME280_humidity;BME280_pressure;Samples;Min_cycle;Max_cycle;Signal;HPM_P1;HPM_P2
2023/07/31 00:01:03;;;;;;;16.02;5.25;;;;;;;17.83;100.00;100534.84;5078283;28;20039;-75
2023/07/31 00:03:49;;;;;;;14.70;5.10;;;;;;;17.81;100.00;100534.38;5089283;28;20062;-75
2023/07/31 00:06:35;;;;;;;18.08;5.60;;;;;;;17.79;100.00;100533.88;5078009;28;20472;-75
2023/07/31 00:09:21;;;;;;;13.00;5.20;;;;;;;17.81;100.00;100537.19;5076448;28;20376;-75
2023/07/31 00:12:07;;;;;;;13.88;5.53;;;;;;;17.79;100.00;100551.53;5080323;28;20034;-75
2023/07/31 00:14:52;;;;;;;16.77;5.70;;;;;;;17.81;100.00;100542.78;5094464;28;20108;-75
2023/07/31 00:17:38;;;;;;;14.20;5.47;;;;;;;17.85;100.00;100557.78;5113125;28;20032;-75
2023/07/31 00:20:24;;;;;;;14.85;5.20;;;;;;;17.82;100.00;100550.03;5096803;28;20484;-76
2023/07/31 00:23:10;;;;;;;13.77;5.22;;;;;;;17.82;100.00;100539.63;5083697;28;20046;-76
2023/07/31 00:25:56;;;;;;;17.85;6.07;;;;;;;17.82;100.00;100531.19;5116909;28;20043;-76
2023/07/31 00:28:41;;;;;;;17.63;6.40;;;;;;;17.83;100.00;100529.22;5087981;28;20100;-75
2023/07/31 00:31:27;;;;;;;15.63;5.80;;;;;;;17.80;100.00;100538.31;5098090;28;20032;-75
2023/07/31 00:34:13;;;;;;;16.67;5.90;;;;;;;17.84;100.00;100537.31;5081808;28;20080;-76
2023/07/31 00:36:59;;;;;;;14.95;5.65;;;;;;;17.84;100.00;100542.09;5080131;28;20115;-75
2023/07/31 00:39:44;;;;;;;13.52;4.95;;;;;;;17.84;100.00;100536.47;5077679;28;20119;-75
2023/07/31 00:42:30;;;;;;;13.73;5.50;;;;;;;17.85;100.00;100538.13;5088123;28;20038;-75
2023/07/31 00:45:16;;;;;;;18.08;5.82;;;;;;;17.87;100.00;100527.38;5098235;28;20036;-76
2023/07/31 00:48:02;;;;;;;16.75;5.82;;;;;;;17.81;100.00;100521.13;5087201;28;20039;-75
2023/07/31 00:50:48;;;;;;;14.82;5.65;;;;;;;17.82;100.00;100533.19;5086013;28;20039;-75
2023/07/31 00:53:34;;;;;;;16.63;6.05;;;;;;;17.82;100.00;100516.34;5081640;28;20506;-75
2023/07/31 00:56:19;;;;;;;16.33;5.40;;;;;;;17.81;100.00;100511.91;5093084;28;20028;-75
2023/07/31 00:59:05;;;;;;;18.30;6.63;;;;;;;17.80;100.00;100510.22;5096789;28;20039;-76
2023/07/31 01:01:51;;;;;;;12.68;5.50;;;;;;;17.82;100.00;100513.53;5087562;28;20037;-75
2023/07/31 01:04:37;;;;;;;14.98;5.30;;;;;;;17.82;100.00;100510.72;5089923;28;20036;-75
2023/07/31 01:07:30;;;;;;;15.43;6.43;;;;;;;17.81;100.00;100503.47;5099884;28;20039;-76
2023/07/31 01:10:19;;;;;;;14.27;6.00;;;;;;;17.84;100.00;100500.78;5095187;28;20023;-78
2023/07/31 01:13:05;;;;;;;17.88;6.47;;;;;;;17.81;100.00;100503.47;5094154;28;20052;-75
2023/07/31 01:15:51;;;;;;;15.07;5.85;;;;;;;17.79;100.00;100506.59;5077489;28;20032;-75
2023/07/31 01:18:36;;;;;;;17.33;6.03;;;;;;;17.82;100.00;100513.53;5119733;28;20035;-76
2023/07/31 01:21:58;;;;;;;14.73;6.40;;;;;;;17.83;100.00;100499.16;5081247;28;20057;-76
2023/07/31 01:24:57;;;;;;;17.20;6.53;;;;;;;17.79;100.00;100498.19;5084208;28;20122;-76
2023/07/31 01:28:07;;;;;;;17.35;6.45;;;;;;;17.79;100.00;100488.94;5094215;28;20038;-76
2023/07/31 01:30:53;;;;;;;18.33;6.25;;;;;;;17.78;100.00;100498.50;5079198;28;20495;-76
2023/07/31 01:33:39;;;;;;;11.88;5.63;;;;;;;17.75;100.00;100490.75;5093730;28;20034;-76
2023/07/31 01:36:25;;;;;;;13.77;5.57;;;;;;;17.76;100.00;100492.41;5077475;28;20047;-75
2023/07/31 01:39:11;;;;;;;16.90;6.00;;;;;;;17.75;100.00;100483.16;5082596;28;20039;-76
2023/07/31 01:41:56;;;;;;;15.45;6.05;;;;;;;17.73;100.00;100484.66;5091200;28;20034;-75
2023/07/31 01:44:42;;;;;;;16.70;6.68;;;;;;;17.77;100.00;100483.63;5081905;28;20023;-76
2023/07/31 01:47:28;;;;;;;17.83;5.93;;;;;;;17.75;100.00;100468.28;5093613;28;20040;-75
2023/07/31 01:50:13;;;;;;;19.05;6.10;;;;;;;17.74;100.00;100461.84;5077692;28;20027;-75
2023/07/31 01:52:59;;;;;;;17.05;6.18;;;;;;;17.74;100.00;100453.41;5088668;28;20492;-75
2023/07/31 01:55:45;;;;;;;16.45;6.47;;;;;;;17.74;100.00;100459.03;5084662;28;20028;-76
2023/07/31 01:58:31;;;;;;;16.42;6.25;;;;;;;17.74;100.00;100456.22;5066333;28;20088;-76
2023/07/31 02:01:17;;;;;;;17.35;6.05;;;;;;;17.73;100.00;100448.97;5105846;28;20486;-76
2023/07/31 02:04:04;;;;;;;14.85;6.10;;;;;;;17.72;100.00;100450.13;5090065;28;20036;-75
2023/07/31 02:06:50;;;;;;;14.65;6.03;;;;;;;17.67;100.00;100444.72;5113855;28;20038;-75
2023/07/31 02:09:36;;;;;;;12.40;5.90;;;;;;;17.69;100.00;100444.38;5097222;28;20032;-75
2023/07/31 02:12:22;;;;;;;15.45;5.93;;;;;;;17.68;100.00;100434.31;5101856;28;20031;-75
2023/07/31 02:15:08;;;;;;;14.32;5.47;;;;;;;17.66;100.00;100423.41;5083389;28;20028;-76
2023/07/31 02:17:54;;;;;;;14.15;5.90;;;;;;;17.67;100.00;100427.06;5049445;28;20497;-76
2023/07/31 02:20:39;;;;;;;16.05;6.30;;;;;;;17.68;100.00;100426.69;5091334;28;20039;-75
2023/07/31 02:23:25;;;;;;;17.83;6.30;;;;;;;17.66;100.00;100417.78;5081624;28;20422;-75
2023/07/31 02:26:11;;;;;;;16.08;5.97;;;;;;;17.67;100.00;100415.84;5066708;28;20421;-76
2023/07/31 02:28:57;;;;;;;16.55;5.60;;;;;;;17.62;100.00;100412.06;5088811;28;20036;-76
2023/07/31 02:31:42;;;;;;;16.73;6.03;;;;;;;17.63;100.00;100407.25;5068334;28;20028;-76
2023/07/31 02:34:28;;;;;;;16.75;6.10;;;;;;;17.61;100.00;100402.00;5093943;28;20119;-76
2023/07/31 02:37:14;;;;;;;16.77;6.22;;;;;;;17.58;100.00;100397.06;5076156;28;20032;-75
2023/07/31 02:40:00;;;;;;;15.40;5.85;;;;;;;17.54;100.00;100398.91;5098339;28;20495;-75
2023/07/31 02:42:45;;;;;;;15.77;6.05;;;;;;;17.55;100.00;100410.97;5090043;28;20028;-75
2023/07/31 02:45:31;;;;;;;15.40;5.30;;;;;;;17.53;100.00;100402.06;5065391;28;20038;-76
2023/07/31 02:48:17;;;;;;;14.80;6.13;;;;;;;17.49;100.00;100396.31;5058933;28;20046;-76
2023/07/31 02:51:03;;;;;;;16.60;6.40;;;;;;;17.52;100.00;100395.63;5070033;28;20439;-75
2023/07/31 02:53:49;;;;;;;15.52;5.55;;;;;;;17.46;100.00;100391.38;5078357;28;20095;-75
2023/07/31 02:56:35;;;;;;;14.98;5.80;;;;;;;17.49;100.00;100398.28;5081634;28;20043;-75
2023/07/31 02:59:21;;;;;;;15.65;5.68;;;;;;;17.47;100.00;100387.44;5082753;28;20039;-75
2023/07/31 03:02:06;;;;;;;14.27;5.55;;;;;;;17.43;100.00;100397.69;5074523;28;20486;-75
2023/07/31 03:04:52;;;;;;;12.07;5.30;;;;;;;17.40;100.00;100387.16;5078900;28;20546;-75
2023/07/31 03:07:38;;;;;;;15.30;6.28;;;;;;;17.39;100.00;100385.50;5059545;28;20041;-75
2023/07/31 03:10:24;;;;;;;14.65;5.55;;;;;;;17.37;100.00;100388.66;5054972;28;20032;-75
2023/07/31 03:13:09;;;;;;;13.25;6.20;;;;;;;17.38;100.00;100381.03;5074753;28;20134;-75
2023/07/31 03:15:55;;;;;;;20.02;5.85;;;;;;;17.35;100.00;100374.13;5059262;28;20038;-75
2023/07/31 03:18:41;;;;;;;17.60;6.07;;;;;;;17.35;100.00;100376.94;5075111;28;20044;-76
2023/07/31 03:21:27;;;;;;;15.60;5.85;;;;;;;17.33;100.00;100373.66;5079594;28;20023;-75
2023/07/31 03:24:12;;;;;;;15.75;6.18;;;;;;;17.37;100.00;100365.38;5094416;28;20035;-75
2023/07/31 03:26:58;;;;;;;14.70;5.60;;;;;;;17.34;100.00;100363.25;5082687;28;20064;-76
2023/07/31 03:29:44;;;;;;;11.48;5.05;;;;;;;17.34;100.00;100360.47;5063549;28;20035;-75
2023/07/31 03:32:30;;;;;;;14.88;5.68;;;;;;;17.35;100.00;100362.09;5063813;28;20043;-75
2023/07/31 03:35:15;;;;;;;18.30;6.38;;;;;;;17.38;100.00;100362.25;5070820;28;20101;-75
2023/07/31 03:38:01;;;;;;;15.55;5.70;;;;;;;17.37;100.00;100354.16;5068475;28;20115;-75
2023/07/31 03:40:47;;;;;;;15.02;5.55;;;;;;;17.37;100.00;100343.75;5067205;28;20468;-75
2023/07/31 03:43:36;;;;;;;17.48;5.50;;;;;;;17.38;100.00;100356.63;5074722;28;20487;-76
2023/07/31 03:46:23;;;;;;;12.05;5.53;;;;;;;17.39;100.00;100346.22;5070285;28;20037;-75
2023/07/31 03:49:08;;;;;;;12.32;5.38;;;;;;;17.38;100.00;100333.31;5069918;28;20056;-75
2023/07/31 03:51:54;;;;;;;14.13;5.45;;;;;;;17.39;100.00;100329.38;5064048;28;20042;-75
2023/07/31 03:54:40;;;;;;;15.38;5.30;;;;;;;17.41;100.00;100327.88;5089183;28;20032;-75
2023/07/31 03:57:25;;;;;;;15.60;5.40;;;;;;;17.36;100.00;100328.06;5087352;28;20052;-76
2023/07/31 04:00:12;;;;;;;13.50;5.28;;;;;;;17.34;100.00;100333.19;5070339;28;20025;-75
2023/07/31 04:02:57;;;;;;;14.43;5.50;;;;;;;17.35;100.00;100322.78;5074770;28;20395;-75
2023/07/31 04:05:43;;;;;;;17.17;6.13;;;;;;;17.34;100.00;100332.38;5057083;28;20033;-75
2023/07/31 04:08:29;;;;;;;13.52;5.85;;;;;;;17.31;100.00;100321.84;5074623;28;20111;-75
2023/07/31 04:11:15;;;;;;;13.88;5.20;;;;;;;17.31;100.00;100314.25;5066269;28;20114;-75
2023/07/31 04:14:00;;;;;;;19.38;5.45;;;;;;;17.27;100.00;100320.88;5082639;28;20414;-76
2023/07/31 04:16:46;;;;;;;15.73;5.40;;;;;;;17.19;100.00;100320.63;5053635;28;20122;-76
2023/07/31 04:19:32;;;;;;;16.15;5.63;;;;;;;17.20;100.00;100321.44;5046767;28;20117;-75
2023/07/31 04:22:18;;;;;;;15.68;5.68;;;;;;;17.18;100.00;100329.38;5067664;28;20510;-75
2023/07/31 04:25:04;;;;;;;15.68;5.35;;;;;;;17.18;100.00;100318.97;5074086;28;20456;-75
2023/07/31 04:27:49;;;;;;;13.98;4.75;;;;;;;17.14;100.00;100312.41;5061665;28;20147;-75
2023/07/31 04:30:36;;;;;;;15.88;5.88;;;;;;;17.12;100.00;100313.91;5072899;28;20024;-75
2023/07/31 04:33:22;;;;;;;15.55;5.72;;;;;;;17.14;100.00;100322.81;5053388;28;20065;-75
2023/07/31 04:36:07;;;;;;;11.48;5.57;;;;;;;17.12;100.00;100322.34;5075307;28;20044;-75
2023/07/31 04:38:53;;;;;;;14.85;5.45;;;;;;;17.12;100.00;100323.16;5057313;28;20108;-76
2023/07/31 04:41:39;;;;;;;12.18;5.22;;;;;;;17.13;100.00;100322.00;5057262;28;20118;-76
2023/07/31 04:44:25;;;;;;;15.68;5.25;;;;;;;17.13;100.00;100316.41;5039169;28;20044;-75
2023/07/31 04:47:10;;;;;;;13.85;5.80;;;;;;;17.13;100.00;100310.78;5018206;28;20025;-76
2023/07/31 04:49:56;;;;;;;14.93;5.43;;;;;;;17.11;100.00;100306.69;5041777;28;20036;-76
2023/07/31 04:52:42;;;;;;;18.23;5.68;;;;;;;17.13;100.00;100305.16;5051400;28;20091;-75
2023/07/31 04:55:28;;;;;;;21.80;5.78;;;;;;;17.14;100.00;100306.00;5061293;28;20040;-76
2023/07/31 04:58:13;;;;;;;14.10;5.38;;;;;;;17.16;100.00;100314.84;5057757;28;20025;-75
2023/07/31 05:00:59;;;;;;;14.88;5.28;;;;;;;17.20;100.00;100311.03;5037127;28;20041;-75
2023/07/31 05:03:45;;;;;;;15.20;5.70;;;;;;;17.20;100.00;100315.84;5053122;28;20033;-76
2023/07/31 05:06:31;;;;;;;14.10;5.45;;;;;;;17.20;100.00;100313.84;5045628;28;20040;-76
2023/07/31 05:09:16;;;;;;;11.13;4.93;;;;;;;17.23;100.00;100308.72;5054499;28;20032;-76
2023/07/31 05:12:05;;;;;;;13.00;5.10;;;;;;;17.24;100.00;100299.13;5033310;28;20028;-75
2023/07/31 05:14:50;;;;;;;16.30;5.70;;;;;;;17.24;100.00;100294.31;5072196;28;20483;-76
2023/07/31 05:17:36;;;;;;;16.02;5.45;;;;;;;17.28;100.00;100295.28;5073338;28;20054;-75
2023/07/31 05:20:23;;;;;;;12.30;5.43;;;;;;;17.31;100.00;100290.97;5057815;28;20473;-75
2023/07/31 05:23:09;;;;;;;11.13;5.05;;;;;;;17.31;100.00;100290.97;5062995;28;20035;-76
2023/07/31 05:25:55;;;;;;;16.70;5.35;;;;;;;17.33;100.00;100285.84;5083314;28;20071;-76
2023/07/31 05:28:40;;;;;;;13.55;5.38;;;;;;;17.36;100.00;100287.97;5070267;28;20051;-76
2023/07/31 05:31:26;;;;;;;16.15;5.53;;;;;;;17.36;100.00;100285.97;5081360;28;20039;-76
2023/07/31 05:34:12;;;;;;;14.52;5.32;;;;;;;17.39;100.00;100282.47;5091793;28;20085;-76
2023/07/31 05:36:58;;;;;;;15.32;5.60;;;;;;;17.41;100.00;100287.72;5073286;28;20043;-76
2023/07/31 05:39:43;;;;;;;15.60;4.85;;;;;;;17.43;100.00;100282.59;5070766;28;20033;-76
2023/07/31 05:42:29;;;;;;;11.75;5.13;;;;;;;17.46;100.00;100284.69;5068228;28;20034;-76
2023/07/31 05:45:15;;;;;;;14.75;5.35;;;;;;;17.49;100.00;100277.56;5075950;28;20042;-76
2023/07/31 05:48:01;;;;;;;16.10;5.00;;;;;;;17.48;100.00;100285.19;5071806;28;20041;-76
2023/07/31 05:50:46;;;;;;;17.20;5.32;;;;;;;17.53;100.00;100295.38;5059515;28;20028;-76
2023/07/31 05:53:32;;;;;;;14.27;5.13;;;;;;;17.52;100.00;100286.13;5064123;28;20495;-76
2023/07/31 05:56:18;;;;;;;16.00;5.35;;;;;;;17.54;100.00;100295.03;5056099;28;20403;-76
2023/07/31 05:59:04;;;;;;;10.30;4.60;;;;;;;17.57;100.00;100294.31;5076302;28;20471;-76
2023/07/31 06:01:50;;;;;;;10.38;5.07;;;;;;;17.57;100.00;100290.69;5067766;28;20028;-76
2023/07/31 06:04:36;;;;;;;14.65;4.93;;;;;;;17.60;100.00;100290.81;5060950;28;20063;-76
2023/07/31 06:07:22;;;;;;;11.63;5.13;;;;;;;17.62;100.00;100282.06;5056887;28;20040;-76
2023/07/31 06:10:08;;;;;;;13.65;5.30;;;;;;;17.62;100.00;100296.09;5093712;28;20035;-76
2023/07/31 06:12:53;;;;;;;11.73;4.60;;;;;;;17.63;100.00;100276.13;5052280;28;20045;-76
2023/07/31 06:15:39;;;;;;;15.43;5.10;;;;;;;17.68;100.00;100279.84;5077374;28;20043;-76
2023/07/31 06:18:25;;;;;;;13.00;4.65;;;;;;;17.65;100.00;100281.38;5066037;28;20071;-76
2023/07/31 06:21:11;;;;;;;14.75;4.82;;;;;;;17.68;100.00;100274.25;5049595;28;20110;-76
2023/07/31 06:23:57;;;;;;;12.32;4.75;;;;;;;17.71;100.00;100273.53;5112523;28;20106;-76
2023/07/31 06:26:42;;;;;;;12.93;4.90;;;;;;;17.74;100.00;100261.59;5070215;28;20024;-76
2023/07/31 06:29:28;;;;;;;14.68;5.15;;;;;;;17.78;100.00;100265.38;5082027;28;20024;-76
2023/07/31 06:32:14;;;;;;;13.45;4.70;;;;;;;17.77;100.00;100261.72;5089667;28;20507;-76
2023/07/31 06:35:00;;;;;;;13.07;4.75;;;;;;;17.80;100.00;100254.63;5055881;28;20135;-76
2023/07/31 06:37:45;;;;;;;10.95;4.57;;;;;;;17.84;100.00;100262.00;5093239;28;20034;-76
2023/07/31 06:40:31;;;;;;;13.15;4.47;;;;;;;17.90;100.00;100264.59;5075775;28;20027;-76
2023/07/31 06:43:17;;;;;;;12.38;4.55;;;;;;;17.91;100.00;100250.19;5075278;28;20097;-76
2023/07/31 06:46:06;;;;;;;11.93;4.40;;;;;;;17.94;100.00;100249.50;5091382;28;20032;-76
2023/07/31 06:48:52;;;;;;;13.65;4.38;;;;;;;17.99;100.00;100248.44;5067949;28;20038;-76
2023/07/31 06:51:38;;;;;;;13.73;4.40;;;;;;;18.04;100.00;100251.03;5090129;28;20038;-76
2023/07/31 06:54:24;;;;;;;11.73;4.13;;;;;;;18.06;100.00;100249.50;5057422;28;20063;-76
2023/07/31 06:57:10;;;;;;;15.68;4.85;;;;;;;18.10;100.00;100252.41;5072749;28;20033;-76
2023/07/31 06:59:55;;;;;;;16.33;4.50;;;;;;;18.14;100.00;100258.19;5076102;28;20040;-76
2023/07/31 07:02:41;;;;;;;15.75;4.38;;;;;;;18.16;100.00;100251.00;5081545;28;20031;-76
2023/07/31 07:05:27;;;;;;;14.00;4.60;;;;;;;18.19;100.00;100243.88;5080695;28;20032;-76
2023/07/31 07:08:13;;;;;;;10.30;4.03;;;;;;;18.21;100.00;100242.34;5051719;28;20046;-76
2023/07/31 07:10:59;;;;;;;11.30;3.83;;;;;;;18.24;100.00;100229.59;5071838;28;20085;-76
2023/07/31 07:13:45;;;;;;;10.98;4.30;;;;;;;18.28;100.00;100241.78;5063266;28;20055;-76
2023/07/31 07:16:31;;;;;;;11.70;3.88;;;;;;;18.30;100.00;100234.63;5067978;28;20037;-76
2023/07/31 07:19:16;;;;;;;9.50;3.60;;;;;;;18.34;100.00;100219.88;5074417;28;20035;-76
2023/07/31 07:22:02;;;;;;;11.80;4.13;;;;;;;18.36;100.00;100220.31;5068997;28;20035;-76
2023/07/31 07:24:48;;;;;;;9.77;3.80;;;;;;;18.42;100.00;100218.91;5088440;28;20043;-76
2023/07/31 07:27:34;;;;;;;10.18;3.90;;;;;;;18.49;100.00;100219.13;5047881;28;20032;-76
2023/07/31 07:30:20;;;;;;;12.38;3.80;;;;;;;18.54;100.00;100221.69;5071545;28;20074;-76
2023/07/31 07:33:05;;;;;;;12.65;3.63;;;;;;;18.62;100.00;100222.72;5080339;28;20043;-76
2023/07/31 07:35:51;;;;;;;10.43;3.85;;;;;;;18.66;100.00;100224.47;5070915;28;20480;-76
2023/07/31 07:38:39;;;;;;;10.57;3.33;;;;;;;18.72;100.00;100222.22;5066135;28;20115;-76
2023/07/31 07:41:24;;;;;;;9.73;3.20;;;;;;;18.79;100.00;100216.03;5081574;28;20103;-76
2023/07/31 07:44:10;;;;;;;10.88;3.92;;;;;;;18.81;100.00;100225.75;5092094;28;20092;-76
2023/07/31 07:46:56;;;;;;;12.30;4.50;;;;;;;18.86;100.00;100211.44;5061330;28;20036;-76
2023/07/31 07:49:42;;;;;;;11.30;3.80;;;;;;;18.90;100.00;100217.16;5088483;28;20080;-76
2023/07/31 07:52:28;;;;;;;10.15;3.40;;;;;;;18.93;100.00;100216.44;5070220;28;20083;-76
2023/07/31 07:55:13;;;;;;;10.10;3.80;;;;;;;18.95;100.00;100212.09;5035311;28;20032;-76
2023/07/31 07:57:59;;;;;;;7.78;3.78;;;;;;;18.98;100.00;100213.38;5055005;28;20454;-76
2023/07/31 08:00:50;;;;;;;9.73;3.53;;;;;;;19.00;100.00;100202.59;5069745;28;20480;-76
2023/07/31 08:03:36;;;;;;;7.32;3.03;;;;;;;19.02;100.00;100202.22;5096025;28;20028;-76
2023/07/31 08:06:22;;;;;;;9.80;3.55;;;;;;;19.04;100.00;100197.88;5072761;28;20035;-76
2023/07/31 08:09:08;;;;;;;9.18;3.45;;;;;;;19.04;100.00;100202.69;5072850;28;20069;-76
2023/07/31 08:11:57;;;;;;;11.82;3.40;;;;;;;19.06;100.00;100197.53;5070367;28;20093;-76
2023/07/31 08:14:42;;;;;;;9.23;3.72;;;;;;;19.07;100.00;100199.97;5069520;28;20053;-76
2023/07/31 08:17:28;;;;;;;9.20;3.28;;;;;;;19.10;100.00;100188.00;5085280;28;20031;-77
2023/07/31 08:20:14;;;;;;;11.35;3.75;;;;;;;19.11;100.00;100181.19;5069498;28;20485;-76
2023/07/31 08:23:00;;;;;;;6.75;3.20;;;;;;;19.12;100.00;100180.00;5056110;28;20514;-76
2023/07/31 08:25:46;;;;;;;12.32;3.63;;;;;;;19.17;100.00;100176.13;5059490;28;20042;-76
2023/07/31 08:28:32;;;;;;;6.97;3.20;;;;;;;19.19;100.00;100173.75;5069163;28;20547;-76
2023/07/31 08:31:18;;;;;;;11.50;4.07;;;;;;;19.19;100.00;100170.94;5069946;28;20075;-76
2023/07/31 08:34:04;;;;;;;8.32;3.47;;;;;;;19.22;100.00;100161.75;5076131;28;20031;-76
2023/07/31 08:36:50;;;;;;;10.27;3.90;;;;;;;19.24;100.00;100169.84;5072881;28;20380;-76
2023/07/31 08:39:39;;;;;;;8.13;3.55;;;;;;;19.24;100.00;100156.59;5084428;28;20024;-76
2023/07/31 08:42:25;;;;;;;9.93;3.80;;;;;;;19.27;100.00;100164.31;5077171;28;20046;-76
2023/07/31 08:45:14;;;;;;;8.50;2.85;;;;;;;19.27;100.00;100160.69;5073273;28;20077;-76
2023/07/31 08:47:59;;;;;;;10.20;3.40;;;;;;;19.28;100.00;100163.16;5072080;28;20546;-76
2023/07/31 08:50:45;;;;;;;9.35;2.88;;;;;;;19.30;100.00;100163.59;5070021;28;20471;-76
2023/07/31 08:53:31;;;;;;;12.60;3.83;;;;;;;19.32;100.00;100158.41;5063867;28;20040;-76
2023/07/31 08:56:17;;;;;;;9.00;3.20;;;;;;;19.34;100.00;100146.81;5082699;28;20040;-76
2023/07/31 08:59:04;;;;;;;7.20;2.97;;;;;;;19.34;100.00;100144.81;5062338;28;20033;-76
2023/07/31 09:01:50;;;;;;;8.57;2.97;;;;;;;19.37;100.00;100154.53;5071944;28;20031;-76
2023/07/31 09:04:36;;;;;;;7.90;3.10;;;;;;;19.37;100.00;100155.34;5077643;28;20047;-76
2023/07/31 09:07:22;;;;;;;10.25;2.55;;;;;;;19.37;100.00;100146.91;5072140;28;20107;-76
2023/07/31 09:10:08;;;;;;;6.35;3.00;;;;;;;19.38;100.00;100142.88;5074627;28;20422;-76
2023/07/31 09:12:54;;;;;;;6.47;2.42;;;;;;;19.38;100.00;100151.34;5077746;28;20186;-76
2023/07/31 09:15:42;;;;;;;7.60;2.75;;;;;;;19.40;100.00;100156.63;5051716;28;20040;-76
2023/07/31 09:18:28;;;;;;;5.93;2.50;;;;;;;19.41;100.00;100159.06;5056706;28;20039;-76
2023/07/31 09:21:14;;;;;;;7.55;2.20;;;;;;;19.45;100.00;100164.00;5032973;28;20070;-76
2023/07/31 09:24:00;;;;;;;6.10;2.60;;;;;;;19.50;100.00;100180.59;5059997;28;20036;-76
2023/07/31 09:26:45;;;;;;;5.38;2.58;;;;;;;19.54;100.00;100167.44;5092291;28;20181;-76
2023/07/31 09:29:31;;;;;;;6.05;2.60;;;;;;;19.57;100.00;100177.97;5026021;28;20112;-75
2023/07/31 09:32:17;;;;;;;3.30;2.22;;;;;;;19.56;100.00;100171.53;5076233;28;20041;-76
2023/07/31 09:35:20;;;;;;;7.72;2.38;;;;;;;19.61;100.00;100162.81;5047933;28;20028;-76
2023/07/31 09:38:13;;;;;;;4.47;2.33;;;;;;;19.65;100.00;100146.00;5050009;28;20395;-76
2023/07/31 09:40:59;;;;;;;6.13;2.22;;;;;;;19.69;100.00;100143.28;5072919;28;20060;-76
2023/07/31 09:43:54;;;;;;;5.72;2.42;;;;;;;19.73;100.00;100147.03;5043290;28;20040;-76
2023/07/31 09:46:42;;;;;;;9.38;2.60;;;;;;;19.83;100.00;100152.91;5035288;28;20028;-76
2023/07/31 09:49:27;;;;;;;5.60;2.50;;;;;;;19.90;100.00;100151.47;5069546;28;20025;-76
2023/07/31 09:52:13;;;;;;;5.78;2.53;;;;;;;20.01;100.00;100136.44;5043680;28;20032;-76
2023/07/31 09:54:59;;;;;;;6.07;2.22;;;;;;;20.15;100.00;100123.84;5042626;28;20060;-76
2023/07/31 09:57:46;;;;;;;5.55;2.55;;;;;;;20.38;100.00;100118.31;5069889;28;20037;-76
2023/07/31 10:00:32;;;;;;;7.60;2.45;;;;;;;20.65;100.00;100117.31;5057170;28;20029;-76
2023/07/31 10:03:18;;;;;;;5.97;2.63;;;;;;;20.94;100.00;100123.50;5041229;28;20105;-76
2023/07/31 10:06:04;;;;;;;5.32;2.83;;;;;;;21.20;100.00;100123.63;5053746;28;20067;-76
2023/07/31 10:08:49;;;;;;;8.52;3.13;;;;;;;21.46;100.00;100119.25;5031043;28;20489;-76
2023/07/31 10:11:38;;;;;;;6.93;3.35;;;;;;;21.69;100.00;100121.22;5050645;28;20510;-76
2023/07/31 10:14:24;;;;;;;7.43;3.25;;;;;;;21.88;100.00;100115.50;5066266;28;20052;-76
2023/07/31 10:17:10;;;;;;;7.93;3.08;;;;;;;22.07;100.00;100112.53;5078918;28;20039;-76
2023/07/31 10:19:56;;;;;;;5.78;3.30;;;;;;;22.24;100.00;100114.03;5055924;28;20488;-76
2023/07/31 10:22:43;;;;;;;8.40;3.15;;;;;;;22.36;100.00;100118.63;5088762;28;20124;-76
2023/07/31 10:25:29;;;;;;;8.52;3.53;;;;;;;22.49;100.00;100117.19;5098947;28;20031;-76
2023/07/31 10:28:15;;;;;;;9.27;3.42;;;;;;;22.59;100.00;100129.00;5081072;28;20028;-76
2023/07/31 10:31:02;;;;;;;7.78;3.45;;;;;;;22.62;100.00;100114.09;5061534;28;20392;-76
2023/07/31 10:33:48;;;;;;;7.03;3.38;;;;;;;22.64;100.00;100120.19;5096430;28;20038;-76
2023/07/31 10:36:34;;;;;;;7.75;3.50;;;;;;;22.60;100.00;100113.69;5072029;28;20038;-76
2023/07/31 10:39:39;;;;;;;6.03;3.22;;;;;;;22.56;100.00;100116.44;5108062;28;20042;-76
2023/07/31 10:42:30;;;;;;;9.38;4.05;;;;;;;22.53;100.00;100097.41;5077898;28;20040;-76
2023/07/31 10:45:36;;;;;;;11.00;4.00;;;;;;;;;;5087713;28;20505;-76
2023/07/31 10:48:23;;;;;;;9.00;3.72;;;;;;;22.36;100.00;100089.53;5115539;28;20031;-76
2023/07/31 10:51:10;;;;;;;7.85;3.67;;;;;;;22.30;100.00;100091.88;5094243;28;20114;-76
2023/07/31 10:54:10;;;;;;;9.82;3.55;;;;;;;22.23;100.00;100088.94;5092875;28;20036;-77
2023/07/31 10:56:56;;;;;;;12.88;4.25;;;;;;;22.14;100.00;100097.69;5080748;28;20036;-77
2023/07/31 10:59:41;;;;;;;10.88;4.00;;;;;;;22.03;100.00;100097.53;5090355;28;20032;-77
2023/07/31 11:02:31;;;;;;;7.57;3.55;;;;;;;21.93;100.00;100098.19;5094632;28;20416;-77
2023/07/31 11:05:17;;;;;;;12.50;4.00;;;;;;;21.88;100.00;100107.00;5089887;28;20046;-77
2023/07/31 11:08:10;;;;;;;9.52;4.18;;;;;;;21.82;100.00;100102.88;5076379;28;20075;-76
2023/07/31 11:11:02;;;;;;;9.93;4.38;;;;;;;21.73;100.00;100094.69;5073672;28;20054;-77
2023/07/31 11:13:52;;;;;;;10.05;4.20;;;;;;;21.69;100.00;100082.47;5109835;28;20050;-76
2023/07/31 11:16:38;;;;;;;8.70;4.35;;;;;;;21.66;100.00;100088.91;5074479;28;20028;-76
2023/07/31 11:19:24;;;;;;;9.27;4.03;;;;;;;21.64;100.00;100075.13;5086805;28;20583;-76
2023/07/31 11:22:10;;;;;;;9.05;4.20;;;;;;;21.64;100.00;100082.81;5093256;28;20449;-76
2023/07/31 11:24:56;;;;;;;11.50;4.43;;;;;;;21.67;100.00;100078.41;5090382;28;20081;-76
2023/07/31 11:27:43;;;;;;;10.32;3.97;;;;;;;21.63;100.00;100082.00;5076768;28;20023;-76
2023/07/31 11:30:29;;;;;;;8.63;3.78;;;;;;;21.64;100.00;100075.13;5077768;28;20142;-76
2023/07/31 11:33:14;;;;;;;8.80;3.75;;;;;;;21.64;100.00;100063.84;5074904;28;20024;-76
2023/07/31 11:36:00;;;;;;;6.45;3.35;;;;;;;21.66;100.00;100071.13;5068665;28;20039;-76
2023/07/31 11:38:46;;;;;;;8.10;3.80;;;;;;;21.67;100.00;100067.09;5079390;28;20492;-76
2023/07/31 11:41:32;;;;;;;7.53;3.72;;;;;;;21.68;100.00;100063.91;5087694;28;20038;-76
2023/07/31 11:44:18;;;;;;;6.28;3.20;;;;;;;21.73;100.00;100065.56;5093703;28;20392;-76
2023/07/31 11:47:03;;;;;;;7.05;3.42;;;;;;;21.73;100.00;100063.59;5062244;28;20032;-76
2023/07/31 11:49:49;;;;;;;8.35;3.33;;;;;;;21.74;100.00;100059.56;5090824;28;20447;-76
2023/07/31 11:52:38;;;;;;;8.90;3.80;;;;;;;21.74;100.00;100053.91;5118482;28;20039;-76
2023/07/31 11:55:24;;;;;;;10.05;4.13;;;;;;;21.74;100.00;100051.06;5102368;28;20039;-76
2023/07/31 11:58:09;;;;;;;8.35;3.83;;;;;;;21.72;100.00;100055.47;5089258;28;20483;-76
2023/07/31 12:00:55;;;;;;;7.63;3.83;;;;;;;21.70;100.00;100050.19;5074049;28;20143;-76
2023/07/31 12:03:42;;;;;;;8.70;4.00;;;;;;;21.72;100.00;100052.66;5075976;28;20082;-77
2023/07/31 12:06:35;;;;;;;9.70;4.05;;;;;;;21.69;100.00;100033.63;5064096;28;20039;-76
2023/07/31 12:09:20;;;;;;;8.45;4.05;;;;;;;21.66;100.00;100035.22;5105440;28;20035;-77
2023/07/31 12:12:09;;;;;;;7.30;3.83;;;;;;;21.65;100.00;100036.41;5079766;28;20039;-76
2023/07/31 12:14:55;;;;;;;9.55;4.20;;;;;;;21.59;100.00;100035.94;5081182;28;20055;-76
2023/07/31 12:17:41;;;;;;;8.52;3.92;;;;;;;21.59;100.00;100027.44;5086910;28;20060;-76
2023/07/31 12:20:27;;;;;;;10.35;3.80;;;;;;;21.59;100.00;100013.31;5095025;28;20155;-76
2023/07/31 12:23:33;;;;;;;10.05;3.97;;;;;;;21.60;100.00;99995.16;5078801;28;20063;-76
2023/07/31 12:26:19;;;;;;;8.15;4.10;;;;;;;21.64;100.00;99990.38;5093789;28;20040;-76
2023/07/31 12:29:07;;;;;;;6.25;3.65;;;;;;;21.70;100.00;100002.16;5091994;28;20039;-76
2023/07/31 12:31:54;;;;;;;9.15;3.80;;;;;;;21.79;100.00;99990.59;5096504;28;20035;-76
2023/07/31 12:34:43;;;;;;;9.93;3.60;;;;;;;21.90;100.00;99997.19;5098946;28;20403;-76
2023/07/31 12:37:29;;;;;;;7.25;3.20;;;;;;;21.98;100.00;99987.63;5082584;28;20508;-76
2023/07/31 12:40:15;;;;;;;8.45;3.15;;;;;;;22.06;100.00;99986.50;5091792;28;20096;-76